Haro, Spain
Current Conditions -  °F | °C
As of 3:30 AM on Monday 24 Nov 2014 (Local Time) from LEVT Reporting Station
Broken Clouds Broken Clouds  
Wind Chill: 13°   Ceiling: 6500
Heat Index: 13°   Visibility: 6mi
Dew Point: 10°   Wind: 5mph
Humidity: 82%   Direction: 360°N
Pressure: 30.03"   Gusts: NA
Location:  42.58°N, 2.85°W
Report Text: LEVT 240230Z 36004KT 320V020 9999 BKN065 13/10 Q1017
Loading
Personal Weather Stations






























Interactive Weather Map New forecast layout! Learn more

10-Day Weather Forecast

Advertisements
Track Severe Weather on mobile